सभी
Riversleigh Airport YRLH मौसम
There is no TAF data available at YRLH or any nearby airports.
There is no METAR data available at YRLH. Showing METAR data for YCNY (19 mi N).
Recent YCNY METAR history (no data for YRLH)
| Date | Time (AEST) | Flight Rules | Wind Dir. | Speed | Type | Height AGL (ft) | Visibility | Temp (°C) | Temp (°F) | Dew Point (°C) | Dew Point (°F) | Rel. Humid. | Pressure | Density Altitude | Remarks |
|---|---|---|---|---|---|---|---|---|---|---|---|---|---|---|---|
| 04-मई | 06:00 | n/a | 190° | 3 kt | Missing | 22° | 71° | 19° | 66° | 83% | 1012 mb | 1,292 ft | |||
| 04-मई | 05:00 | n/a | 180° | 3 kt | Missing | 22° | 71° | 20° | 68° | 88% | 1012 mb | 1,292 ft | |||
| 04-मई | 04:00 | n/a | 180° | 3 kt | Missing | 23° | 73° | 20° | 68° | 83% | 1012 mb | 1,412 ft | |||
| 04-मई | 03:00 | n/a | 200° | 5 kt | Missing | 22° | 71° | 21° | 69° | 94% | 1012 mb | 1,292 ft | |||
| 04-मई | 02:00 | n/a | Calm | Missing | 21° | 69° | 20° | 68° | 94% | 1013 mb | 1,142 ft | ||||
| 04-मई | 01:00 | n/a | Calm | Missing | 22° | 71° | 20° | 68° | 88% | 1013 mb | 1,262 ft | ||||
| 04-मई | 00:00 | n/a | Calm | Missing | 22° | 71° | 20° | 68° | 88% | 1014 mb | 1,233 ft | ||||
| 03-मई | 23:00 | n/a | Calm | Missing | 23° | 73° | 20° | 68° | 83% | 1014 mb | 1,353 ft | ||||
| 03-मई | 22:00 | n/a | Calm | Missing | 23° | 73° | 19° | 66° | 78% | 1014 mb | 1,353 ft | ||||
| 03-मई | 21:00 | n/a | Calm | Missing | 24° | 75° | 19° | 66° | 74% | 1013 mb | 1,502 ft | ||||
| 03-मई | 20:00 | n/a | 80° | 3 kt | Missing | 25° | 77° | 19° | 66° | 69% | 1012 mb | 1,652 ft | |||
| 03-मई | 19:00 | n/a | Calm | Missing | 26° | 78° | 19° | 66° | 65% | 1012 mb | 1,772 ft | ||||
| 03-मई | 18:00 | n/a | 70° | 4 kt | Missing | 32° | 89° | 17° | 62° | 41% | 1011 mb | 2,521 ft | |||
| 03-मई | 17:00 | n/a | 300° | 2 kt | Missing | 34° | 93° | 15° | 59° | 32% | 1011 mb | 2,761 ft | |||
| 03-मई | 16:00 | n/a | 150° | 3 kt | Missing | 33° | 91° | 16° | 60° | 36% | 1012 mb | 2,612 ft | |||
| 03-मई | 15:00 | n/a | 80° | 4 kt | Missing | 34° | 93° | 16° | 60° | 34% | 1012 mb | 2,732 ft | |||
| 03-मई | 14:00 | n/a | 150° | 5 kt | Missing | 32° | 89° | 17° | 62° | 41% | 1012 mb | 2,492 ft | |||
| 03-मई | 13:00 | n/a | 90° | 6 kt | Missing | 34° | 93° | 16° | 60° | 34% | 1013 mb | 2,702 ft | |||
| 03-मई | 12:00 | n/a | 80° | 6 kt | Missing | 33° | 91° | 16° | 60° | 36% | 1014 mb | 2,553 ft | |||
| 03-मई | 11:00 | n/a | 150° | 5 kt | Missing | 31° | 87° | 16° | 60° | 40% | 1014 mb | 2,313 ft | |||
| 03-मई | 10:00 | n/a | 120° | 4 kt | Missing | 30° | 86° | 17° | 62° | 46% | 1015 mb | 2,163 ft | |||
| 03-मई | 09:00 | n/a | 170° | 3 kt | Missing | 28° | 82° | 18° | 64° | 55% | 1014 mb | 1,953 ft | |||
| 03-मई | 08:00 | n/a | 210° | 1 kt | Missing | 25° | 77° | 19° | 66° | 69% | 1014 mb | 1,593 ft | |||
| 03-मई | 07:00 | n/a | 210° | 5 kt | Missing | 21° | 69° | 18° | 64° | 83% | 1013 mb | 1,142 ft |
लॉगिन
| Your browser is unsupported. अपना ब्राऊजर अपग्रेड करें |
